Anaktuvuk Pass Airport
PAKP : now visible

Airfield :











YOU CAN JOIN US ON...

 
LOGIN :

Register | Disclaimer

   EN    FR    IT 

 









Legend :    VFR   Marginal VFR   IFR   Intensive IFR   Very Intensive IFR
Visi :
Ceiling :
>= 8 km
>= 3000ft
5 to 8 km
1000 to 3000 ft
1500m to 5 km
500 to 1000 ft
800 to 1500m
200 to 500 ft
< 800m
< 200 ft
Symbols :   Thunderstorms  Fog  Heavy snow  Heavy precipitations  Wind > 20 kt






- Airport Elevation : 2102 ft
- IATA code : AKP


PAKP - Anaktuvuk Pass

CURRENT METAR :
  • 210345Z AUTO 03012KT 8SM -SN BKN028 OVC090 M24/M27 A2905 RMK AO2 P0000 FZRANO

EXPIRED METARs :
  • 210319Z AUTO 02013KT 6SM -SN BR FEW017 SCT029 BKN090 M24/M27 A2905 RMK AO2 P0000 FZRANO
  • 210305Z AUTO 03011KT 5SM -SN BR FEW019 BKN029 BKN090 M24/M27 A2906 RMK AO2 P0000 FZRANO
  • 210256Z AUTO 03010KT 9SM -SN FEW016 SCT029 BKN048 M24/M27 A2906 RMK AO2 SLP920 P0000 60000 T12391267 58007 FZRANO
  • 210156Z AUTO 03011KT 9SM -SN FEW011 OVC048 M23/M26 A2907 RMK AO2 SLP925 P0000 T12331256 FZRANO
  • 210056Z AUTO 03012KT 6SM -SN OVC046 M23/M26 A2907 RMK AO2 SNB10 SLP927 P0000 T12331261 FZRANO

TAF N/A



MET'MAP, your aeronautical weather chart ! - Copyright ORBIFLY December 2007 - Disclaimer

ORBIFLY MET'MAP TEAM :

Programming & Development : Alexandra Zaïnal
Concept & original design : Baudouin d'Aumeries
Assistance for programming : Marc-Olivier Méhu
Technical & hardware support : Manuel Goepfert

Contact : metmap@orbifly.com




SOURCES & CREDITS :

   NOAA       Earth
Advisory